KSGU/SGU METAR and TAF weather

Enter ICAO airport designator
Station Type Date Time Source
KSGU METAR 2020/08/06 00:56 UTC NOAA

KSGU 060056Z AUTO 27012KT 10SM CLR 37/M01 A2978 RMK AO2 SLP040 T03721011


Station Type Date Time Source
KSGU Decoded METAR 2020/08/06 00:56 UTC NOAA

St George, St George Municipal Airport, UT, United States (KSGU) 37-05N 113-36W
Aug 05, 2020 - 08:56 PM EDT / 2020.08.06 0056 UTC
Wind: from the W (270 degrees) at 14 MPH (12 KT):0
Visibility: 10 mile(s):0
Sky conditions: clear
Temperature: 99.0 F (37.2 C)
Dew Point: 30.0 F (-1.1 C)
Relative Humidity: 8%
Pressure (altimeter): 29.78 in. Hg (1008 hPa)
ob: KSGU 060056Z AUTO 27012KT 10SM CLR 37/M01 A2978 RMK AO2 SLP040 T03721011
cycle: 1

Station Type Date Time Source
KSGU TAF 2020/08/05 18:42 UTC NOAA

TAF KSGU 051739Z 0518/0618 14005KT P6SM SKC
FM052000 24016G24KT P6SM SKC
FM060500 15007KT P6SM SKC

Example: see airport list